Breckenridge, TX (76424)

1:39 PM CDT on September 03, 2015 (GMT -0500)
West Breckenridge | | Change Station
CLOSE
Current Station
Personal Weather Station
Location: Breckenridge, TX
Elevation: 1263 ft
Nearby Weather Stations

Elev 1263 ft 32.75 °N, 98.93 °W | Updated 31 seconds ago

Haze
Haze
91.3 °F
Feels Like 92 °F
N
2.1
Wind Variable Wind from South
Gusts 7.0 mph

Today
High -- | Low -- °F
--% Chance of Precip.
Yesterday
High -- | Low -- °F
Precip. -- in
7:11 AM 7:58 PM
Waning Gibbous, 68% visible
Pressure 29.96 in
Visibility 5.0 miles
Clouds Mostly Cloudy 6000 ft
Heat Index 92 °F
Dew Point 61 °F
Humidity 37%
Rainfall 0.00 in
Snow Depth Not available.
UV 6 out of 12
Pollen 9.30 out of 12
Air Quality Not available.
Flu Activity Not available.
METAR KBKD 031815Z AUTO 12008G14KT 110V170 5SM HZ BKN060 34/15 A2996 RMK AO2 T03440148
Pressure 29.96 in
Visibility 5.0 miles
Clouds Mostly Cloudy 6000 ft
Heat Index 92 °F
Dew Point 61 °F
Humidity 37%
Rainfall 0.00 in
Snow Depth Not available.
UV 6 out of 12
Pollen 9.30 out of 12
Air Quality Not available.
Flu Activity Not available.
METAR KBKD 031815Z AUTO 12008G14KT 110V170 5SM HZ BKN060 34/15 A2996 RMK AO2 T03440148

10-Day Weather Forecast

×

Almanac

Astronomy

Sep. 03, 2015 Rise Set
Actual Time
Civil Twilight
Nautical Twilight
Astronomical Twilight
Moon
Length of Visible Light
Length of Day
Tomorrow will be .
, % of the Moon is Illuminated

Today's Extremes

State Highs State Lows

Community

WunderPhotos

Upload Photos

1,851,999 photos uploaded!

WunderBlogs® & News

Nearby

Air Quality

  Air Quality AQ Index Pollutant
Not available.

Snow Depth

Station Depth Elevation

Earthquake Activity

City Distance Mag. Time & Date
Minimum magnitude displayed is 2.5.

Coastal Water Temperatures

Place Temperature

Stations

Nearby Weather Stations

Station Location Temp. Windchill Dew Point Humidity Wind Precip. Elev Updated Type